createdAt,value
2018-07-30T05:23:43.737Z,8.63
2018-07-30T05:26:14.259Z,7.90
2018-07-30T05:28:45.640Z,8.53
2018-07-30T05:31:15.755Z,8.50
2018-07-30T05:33:45.952Z,7.90
2018-07-30T05:36:15.862Z,7.80
2018-07-30T05:38:45.872Z,7.93
2018-07-30T05:41:16.619Z,8.10
2018-07-30T05:43:46.711Z,8.53
2018-07-30T05:46:17.084Z,7.63
2018-07-30T05:48:47.034Z,8.10
2018-07-30T05:51:17.152Z,7.47
2018-07-30T05:53:47.402Z,8.30
2018-07-30T05:56:18.187Z,7.87
2018-07-30T05:58:48.393Z,7.40
2018-07-30T06:01:19.522Z,9.73
2018-07-30T06:03:50.227Z,8.07
2018-07-30T06:06:20.227Z,8.07
2018-07-30T06:08:50.799Z,8.17
2018-07-30T06:11:20.872Z,7.80
2018-07-30T06:13:50.761Z,9.17
2018-07-30T06:16:20.772Z,9.20
2018-07-30T06:18:50.791Z,9.00
2018-07-30T06:21:20.901Z,8.80
2018-07-30T06:23:50.796Z,9.63
2018-07-30T06:26:20.710Z,7.93
2018-07-30T06:28:51.037Z,9.03
2018-07-30T06:31:21.741Z,7.70
2018-07-30T06:33:51.864Z,8.30
2018-07-30T06:36:22.139Z,8.40
2018-07-30T06:38:52.496Z,8.10
2018-07-30T06:41:23.163Z,9.83
2018-07-30T06:43:53.159Z,8.47
2018-07-30T06:46:23.409Z,8.37
2018-07-30T06:48:53.464Z,8.00
2018-07-30T06:51:23.763Z,7.60
2018-07-30T06:53:53.900Z,7.73
2018-07-30T06:56:24.494Z,7.53
2018-07-30T06:58:54.539Z,7.83
2018-07-30T07:01:24.677Z,7.50
2018-07-30T07:03:54.751Z,8.00
2018-07-30T07:06:24.872Z,8.00
2018-07-30T07:08:54.994Z,7.50
2018-07-30T07:11:24.831Z,7.00
2018-07-30T07:13:54.867Z,7.33
2018-07-30T07:16:24.994Z,7.50
2018-07-30T07:18:55.191Z,7.30
2018-07-30T07:21:25.325Z,7.30
2018-07-30T07:23:55.723Z,7.40
2018-07-30T07:26:25.783Z,7.60
2018-07-30T07:28:55.858Z,7.43
2018-07-30T07:31:26.367Z,7.27
2018-07-30T07:33:56.775Z,6.40
2018-07-30T07:36:26.745Z,7.40
2018-07-30T07:38:56.748Z,6.97
2018-07-30T07:41:26.793Z,7.33
2018-07-30T07:43:56.950Z,7.00
2018-07-30T07:46:26.903Z,7.33
2018-07-30T07:48:57.023Z,8.47
2018-07-30T07:51:26.973Z,7.40
2018-07-30T07:53:57.048Z,7.17
2018-07-30T07:56:27.331Z,7.70
2018-07-30T07:58:57.605Z,7.53
2018-07-30T08:01:28.032Z,7.40
2018-07-30T08:03:58.092Z,6.90
2018-07-30T08:06:28.497Z,7.70
2018-07-30T08:08:59.216Z,8.00
2018-07-30T08:11:29.446Z,8.43
2018-07-30T08:13:59.544Z,7.60
2018-07-30T08:16:29.656Z,8.00
2018-07-30T08:18:59.775Z,8.60
2018-07-30T08:21:30.387Z,8.13
2018-07-30T08:24:00.436Z,7.63
2018-07-30T08:26:30.556Z,7.20
2018-07-30T08:29:00.736Z,7.50
2018-07-30T08:31:31.087Z,9.33
2018-07-30T08:34:01.165Z,9.20
2018-07-30T08:36:31.475Z,8.10
2018-07-30T08:39:01.698Z,8.33
2018-07-30T08:41:31.765Z,8.40
2018-07-30T08:44:01.932Z,9.20
2018-07-30T08:46:32.126Z,8.37
2018-07-30T08:49:02.152Z,7.93
2018-07-30T08:51:32.184Z,8.03
2018-07-30T08:54:02.178Z,8.33
2018-07-30T08:56:32.208Z,9.23
2018-07-30T08:59:02.348Z,8.70
2018-07-30T09:01:32.482Z,8.63
2018-07-30T09:04:02.907Z,8.20
2018-07-30T09:06:32.827Z,8.63
2018-07-30T09:09:02.939Z,8.20
2018-07-30T09:11:32.924Z,8.30
2018-07-30T09:14:02.983Z,7.83
2018-07-30T09:16:32.995Z,8.07
2018-07-30T09:19:02.926Z,8.23
2018-07-30T09:21:33.935Z,7.13
2018-07-30T09:24:04.223Z,7.87
2018-07-30T09:26:34.347Z,7.37
2018-07-30T09:29:04.587Z,7.90
2018-07-30T09:31:34.672Z,7.50
2018-07-30T09:34:04.669Z,7.17
2018-07-30T09:36:34.825Z,7.23
2018-07-30T09:39:06.859Z,7.40
2018-07-30T09:41:37.140Z,6.93
2018-07-30T09:44:07.365Z,7.60
2018-07-30T09:46:37.122Z,6.30
2018-07-30T09:49:07.846Z,7.33
2018-07-30T09:51:37.863Z,7.13
2018-07-30T09:54:07.891Z,7.50
2018-07-30T09:56:37.868Z,7.20
2018-07-30T09:59:07.751Z,7.80
2018-07-30T10:01:37.751Z,7.57
2018-07-30T10:04:07.517Z,7.17
2018-07-30T10:06:37.717Z,6.97
2018-07-30T10:09:11.015Z,7.50
2018-07-30T10:11:40.965Z,7.00
2018-07-30T10:14:10.975Z,6.83
2018-07-30T10:16:41.197Z,7.10
2018-07-30T10:19:11.186Z,6.37
2018-07-30T10:21:41.026Z,6.40
2018-07-30T10:24:11.106Z,7.70
2018-07-30T10:26:40.982Z,7.37
2018-07-30T10:29:11.043Z,6.93
2018-07-30T10:31:40.902Z,6.73
2018-07-30T10:34:10.898Z,7.87
2018-07-30T10:36:40.999Z,8.20
2018-07-30T10:39:10.936Z,8.40
2018-07-30T10:41:40.969Z,6.80
2018-07-30T10:44:10.918Z,7.80
2018-07-30T10:46:41.282Z,6.80
2018-07-30T10:49:11.624Z,7.83
2018-07-30T10:51:41.592Z,5.80
2018-07-30T10:54:11.622Z,5.70
2018-07-30T10:56:41.571Z,5.63
2018-07-30T10:59:11.698Z,5.90
2018-07-30T11:01:41.686Z,6.87
2018-07-30T11:04:12.172Z,6.00
2018-07-30T11:06:42.033Z,6.87
2018-07-30T11:09:13.803Z,7.00
2018-07-30T11:11:42.594Z,6.00
2018-07-30T11:14:12.364Z,5.70
2018-07-30T11:16:42.207Z,6.20
2018-07-30T11:19:12.250Z,5.40
2018-07-30T11:21:42.270Z,5.57
2018-07-30T11:24:12.576Z,5.13
2018-07-30T11:26:42.543Z,5.30
2018-07-30T11:29:12.590Z,5.10
2018-07-30T11:31:42.543Z,4.70
2018-07-30T11:34:12.313Z,4.40
2018-07-30T11:36:42.178Z,4.37
2018-07-30T11:39:13.530Z,5.07
2018-07-30T11:41:43.686Z,5.07
2018-07-30T11:44:14.414Z,5.80
2018-07-30T11:46:44.334Z,5.80
2018-07-30T11:49:14.220Z,4.80
2018-07-30T11:51:44.075Z,4.70
2018-07-30T11:54:14.887Z,5.00
2018-07-30T11:56:44.952Z,5.57
2018-07-30T11:59:14.837Z,4.50
2018-07-30T12:01:44.930Z,5.00
2018-07-30T12:04:15.123Z,4.20
2018-07-30T12:06:44.917Z,4.30
2018-07-30T12:09:15.167Z,3.83
2018-07-30T12:11:45.671Z,4.43
2018-07-30T12:14:16.535Z,4.23
2018-07-30T12:16:46.834Z,4.00
2018-07-30T12:19:17.797Z,3.87
2018-07-30T12:21:49.708Z,4.13
2018-07-30T12:24:20.011Z,3.87
2018-07-30T12:26:50.115Z,3.73
2018-07-30T12:29:19.893Z,4.10
2018-07-30T12:31:49.672Z,3.63
2018-07-30T12:34:19.514Z,3.90
2018-07-30T12:36:49.399Z,3.70
2018-07-30T12:39:19.342Z,4.37
2018-07-30T12:41:49.345Z,3.80
2018-07-30T12:44:19.690Z,4.40
2018-07-30T12:46:49.896Z,4.50
2018-07-30T12:49:19.849Z,4.00
2018-07-30T12:51:50.193Z,4.30
2018-07-30T12:54:20.237Z,4.50
2018-07-30T12:56:50.897Z,3.73
2018-07-30T12:59:21.020Z,3.93
2018-07-30T13:01:50.848Z,4.73
2018-07-30T13:04:20.591Z,4.20
2018-07-30T13:06:50.683Z,4.03
2018-07-30T13:09:20.730Z,4.10
2018-07-30T13:11:50.844Z,3.70
2018-07-30T13:14:20.809Z,3.83
2018-07-30T13:16:50.893Z,4.47
2018-07-30T13:19:20.684Z,4.70
2018-07-30T13:21:50.462Z,4.33
2018-07-30T13:24:21.235Z,4.00
2018-07-30T13:26:51.259Z,4.57
2018-07-30T13:29:21.280Z,4.43
2018-07-30T13:31:51.204Z,4.30
2018-07-30T13:34:21.291Z,4.50
2018-07-30T13:36:57.807Z,4.70
2018-07-30T13:39:27.733Z,4.30
2018-07-30T13:41:57.797Z,4.20
2018-07-30T13:44:27.879Z,5.07
2018-07-30T13:46:58.115Z,4.40
2018-07-30T13:49:27.939Z,3.73
2018-07-30T13:51:57.781Z,4.60
2018-07-30T13:54:28.443Z,3.97
2018-07-30T13:57:01.500Z,4.30
2018-07-30T13:59:31.530Z,4.63
2018-07-30T14:02:01.760Z,4.93
2018-07-30T14:04:31.537Z,4.37
2018-07-30T14:07:01.477Z,5.40
2018-07-30T14:09:31.551Z,4.77
2018-07-30T14:12:01.642Z,4.30
2018-07-30T14:14:32.486Z,5.30
2018-07-30T14:17:02.377Z,4.70
2018-07-30T14:19:32.235Z,4.20
2018-07-30T14:22:02.080Z,5.03
2018-07-30T14:24:32.250Z,4.97
2018-07-30T14:27:02.187Z,5.10
2018-07-30T14:29:32.000Z,4.90
2018-07-30T14:32:02.981Z,4.60
2018-07-30T14:34:32.849Z,4.77
2018-07-30T14:37:02.761Z,5.17
2018-07-30T14:39:32.922Z,4.90
2018-07-30T14:42:02.716Z,5.90
2018-07-30T14:44:32.962Z,5.13
2018-07-30T14:47:03.040Z,4.93
2018-07-30T14:49:33.413Z,5.63
2018-07-30T14:52:03.614Z,4.63
2018-07-30T14:54:33.911Z,5.33
2018-07-30T14:57:04.229Z,5.13
2018-07-30T14:59:34.495Z,5.27
2018-07-30T15:02:04.954Z,5.40
2018-07-30T15:04:35.201Z,5.27
2018-07-30T15:07:06.197Z,5.53
2018-07-30T15:09:36.453Z,5.03
2018-07-30T15:12:06.863Z,5.00
2018-07-30T15:14:37.375Z,5.67
2018-07-30T15:17:07.664Z,5.30
2018-07-30T15:19:38.048Z,5.63
2018-07-30T15:22:08.428Z,6.13
2018-07-30T15:24:38.608Z,5.97
2018-07-30T15:27:08.993Z,5.10
2018-07-30T15:29:38.931Z,6.10
2018-07-30T15:32:09.463Z,5.60
2018-07-30T15:34:39.593Z,5.47
2018-07-30T15:37:10.243Z,5.90
2018-07-30T15:39:40.675Z,5.60
2018-07-30T15:42:11.003Z,5.57
2018-07-30T15:44:41.729Z,5.10
2018-07-30T15:47:11.993Z,6.03
2018-07-30T15:49:42.823Z,5.87
2018-07-30T15:52:12.908Z,5.97
2018-07-30T15:54:43.385Z,5.97
2018-07-30T15:57:14.161Z,5.13
2018-07-30T15:59:44.726Z,6.60
2018-07-30T16:02:14.980Z,6.00
2018-07-30T16:04:45.207Z,6.30
2018-07-30T16:07:15.515Z,6.23
2018-07-30T16:09:45.650Z,6.40
2018-07-30T16:12:15.843Z,6.50
2018-07-30T16:14:46.186Z,6.40
2018-07-30T16:17:16.288Z,6.30
2018-07-30T16:19:46.413Z,6.97
2018-07-30T16:22:16.660Z,6.87
2018-07-30T16:24:47.125Z,7.67
2018-07-30T16:27:17.682Z,7.13
2018-07-30T16:29:47.902Z,7.10
2018-07-30T16:32:18.200Z,6.23
2018-07-30T16:34:48.432Z,6.53
2018-07-30T16:37:18.491Z,6.40
2018-07-30T16:39:48.756Z,7.10
2018-07-30T16:42:19.473Z,6.73
2018-07-30T16:44:49.562Z,7.10
2018-07-30T16:47:19.745Z,7.63
2018-07-30T16:49:50.507Z,7.37
2018-07-30T16:54:55.672Z,6.80
2018-07-30T16:57:25.621Z,6.60
2018-07-30T16:59:55.796Z,6.77
2018-07-30T17:02:26.095Z,6.60
2018-07-30T17:04:56.342Z,7.03
2018-07-30T17:07:26.650Z,7.17
2018-07-30T17:09:57.492Z,7.37
2018-07-30T17:12:28.130Z,7.03
2018-07-30T17:14:58.862Z,7.03
2018-07-30T17:17:29.116Z,6.60
2018-07-30T17:19:59.194Z,7.90
2018-07-30T17:22:29.453Z,7.67
2018-07-30T17:24:59.699Z,6.90
2018-07-30T17:27:30.023Z,7.10
2018-07-30T17:30:00.375Z,6.53
2018-07-30T17:32:30.914Z,7.07
2018-07-30T17:35:01.516Z,6.97
2018-07-30T17:37:32.789Z,6.83
2018-07-30T17:40:03.241Z,6.77
2018-07-30T17:42:33.611Z,6.83
2018-07-30T17:45:05.408Z,6.90
2018-07-30T17:47:37.743Z,7.93
2018-07-30T17:50:08.787Z,6.57
2018-07-30T17:52:39.377Z,6.43
2018-07-30T17:55:09.763Z,7.27
2018-07-30T17:57:40.387Z,7.10
2018-07-30T18:00:11.392Z,7.23
2018-07-30T18:02:41.576Z,7.13
2018-07-30T18:05:12.084Z,7.10
2018-07-30T18:07:42.464Z,7.80
2018-07-30T18:10:12.994Z,7.27
2018-07-30T18:12:43.288Z,7.40
2018-07-30T18:15:19.347Z,8.27
2018-07-30T18:17:49.619Z,7.80
2018-07-30T18:20:19.853Z,7.30
2018-07-30T18:22:50.259Z,7.57
2018-07-30T18:25:20.185Z,7.20
2018-07-30T18:27:50.466Z,7.40
2018-07-30T18:30:20.622Z,7.70
2018-07-30T18:32:50.943Z,8.80
2018-07-30T18:35:21.121Z,7.50
2018-07-30T18:37:51.598Z,8.07
2018-07-30T18:40:22.348Z,8.03
2018-07-30T18:42:53.424Z,8.37
2018-07-30T18:45:23.582Z,8.00
2018-07-30T18:47:53.535Z,7.27
2018-07-30T18:50:23.855Z,8.10
2018-07-30T18:52:54.125Z,7.60
2018-07-30T18:55:24.511Z,8.03
2018-07-30T18:57:54.700Z,7.80
2018-07-30T19:00:24.809Z,9.00
2018-07-30T19:02:55.357Z,7.80
2018-07-30T19:05:26.946Z,7.90
2018-07-30T19:07:57.470Z,8.10
2018-07-30T19:10:27.731Z,7.20
2018-07-30T19:12:57.931Z,7.37
2018-07-30T19:15:28.117Z,7.53
2018-07-30T19:17:58.586Z,8.17
2018-07-30T19:20:29.418Z,7.50
2018-07-30T19:22:59.805Z,8.00
2018-07-30T19:25:29.883Z,7.60
2018-07-30T19:28:00.372Z,7.10
2018-07-30T19:30:30.398Z,7.80
2018-07-30T19:33:00.963Z,7.47
2018-07-30T19:35:31.130Z,8.40
2018-07-30T19:38:01.281Z,7.60
2018-07-30T19:40:31.626Z,8.07
2018-07-30T19:43:01.860Z,7.63
2018-07-30T19:45:32.284Z,8.10
2018-07-30T19:48:08.560Z,8.30
2018-07-30T19:50:38.746Z,7.60
2018-07-30T19:53:09.387Z,8.47
2018-07-30T19:55:39.998Z,8.50
2018-07-30T19:58:11.365Z,8.70
2018-07-30T20:00:41.931Z,8.10
2018-07-30T20:03:12.808Z,7.80
2018-07-30T20:05:43.216Z,9.23
2018-07-30T20:08:13.702Z,8.30
2018-07-30T20:10:44.113Z,9.10
2018-07-30T20:13:14.709Z,8.50
2018-07-30T20:15:45.260Z,8.67
2018-07-30T20:18:15.383Z,7.60
2018-07-30T20:20:46.015Z,8.73
2018-07-30T20:23:16.641Z,7.77
2018-07-30T20:25:46.922Z,7.77
2018-07-30T20:28:17.275Z,8.77
2018-07-30T20:30:47.622Z,8.20
2018-07-30T20:33:18.763Z,8.73
2018-07-30T20:35:49.127Z,8.23
2018-07-30T20:38:19.887Z,8.80
2018-07-30T20:40:49.989Z,9.77
2018-07-30T20:43:20.351Z,9.20
2018-07-30T20:45:50.519Z,9.07
2018-07-30T20:48:21.748Z,9.60
2018-07-30T20:50:51.993Z,8.70
2018-07-30T20:53:22.271Z,8.80
2018-07-30T20:55:52.431Z,9.53
2018-07-30T20:58:22.627Z,8.53
2018-07-30T21:00:52.813Z,8.17
2018-07-30T21:03:23.016Z,8.50
2018-07-30T21:05:53.957Z,8.37
2018-07-30T21:08:24.247Z,9.00
2018-07-30T21:10:54.731Z,8.83
2018-07-30T21:13:24.878Z,7.97
2018-07-30T21:15:55.795Z,8.00
2018-07-30T21:18:25.981Z,8.93
2018-07-30T21:20:56.671Z,7.83
2018-07-30T21:23:26.909Z,8.77
2018-07-30T21:25:57.339Z,8.30
2018-07-30T21:28:27.535Z,8.53
2018-07-30T21:30:58.126Z,8.37
2018-07-30T21:33:28.346Z,8.60
2018-07-30T21:36:01.577Z,8.40
2018-07-30T21:38:31.853Z,9.27
2018-07-30T21:41:02.411Z,8.97
2018-07-30T21:43:32.502Z,8.93
2018-07-30T21:46:02.771Z,10.20
2018-07-30T21:48:33.032Z,8.70
2018-07-30T21:51:03.000Z,8.70
2018-07-30T21:53:33.102Z,8.10
2018-07-30T21:56:03.335Z,8.90
2018-07-30T21:58:33.503Z,7.90
2018-07-30T22:01:03.674Z,8.57
2018-07-30T22:03:33.546Z,8.33
2018-07-30T22:06:03.871Z,8.20
2018-07-30T22:08:33.992Z,8.07
2018-07-30T22:11:04.068Z,7.73
2018-07-30T22:13:34.287Z,7.00
2018-07-30T22:16:04.906Z,7.77
2018-07-30T22:18:35.312Z,7.30
2018-07-30T22:21:05.583Z,7.20
2018-07-30T22:23:35.971Z,7.97
2018-07-30T22:26:06.315Z,7.20
2018-07-30T22:28:36.555Z,7.60
2018-07-30T22:31:07.519Z,8.10
2018-07-30T22:33:37.710Z,8.30
2018-07-30T22:36:07.912Z,8.10
2018-07-30T22:38:38.024Z,8.03
2018-07-30T22:41:08.452Z,8.83
2018-07-30T22:43:38.771Z,8.27
2018-07-30T22:46:08.666Z,9.10
2018-07-30T22:48:38.881Z,8.13
2018-07-30T22:51:09.342Z,8.90
2018-07-30T22:53:39.342Z,9.43
2018-07-30T22:56:09.466Z,9.80
2018-07-30T22:58:40.016Z,8.47
2018-07-30T23:01:10.200Z,9.10
2018-07-30T23:03:40.477Z,8.87
2018-07-30T23:06:10.656Z,8.70
2018-07-30T23:08:41.558Z,9.00
2018-07-30T23:11:11.526Z,9.37
2018-07-30T23:13:42.679Z,9.23
2018-07-30T23:16:12.992Z,9.10
2018-07-30T23:18:43.283Z,8.43
2018-07-30T23:21:13.945Z,8.03
2018-07-30T23:23:44.067Z,8.60
2018-07-30T23:26:14.091Z,8.30
2018-07-30T23:28:44.367Z,8.70
2018-07-30T23:31:14.680Z,8.10
2018-07-30T23:33:45.183Z,9.80
2018-07-30T23:36:15.376Z,7.87
2018-07-30T23:38:45.615Z,8.10
2018-07-30T23:41:15.787Z,8.13
2018-07-30T23:43:45.883Z,8.30
2018-07-30T23:46:16.046Z,8.40
2018-07-30T23:48:46.610Z,8.40
2018-07-30T23:51:16.718Z,8.43
2018-07-30T23:53:48.267Z,8.60
2018-07-30T23:56:18.548Z,9.20
2018-07-30T23:58:49.220Z,8.53
